1923 NOT_NAMED (1923329N11143)


IBTrACS version v04r00. Visit IBTrACS website for data access.
Please direct all questions to the IBTrACS Q and A forum

Storm track - Intensity - Wind Radii - Intensity Data - Source Data - All data

Summary Information

Storm ID 1923329N11143
Start Nov 24 22Z
End Nov 28 22Z
ATCF IDs
Track status Best track data.

Storm track plot

Map of storm track

Intensity plots

No Intensity information for this storm


Radial wind information

No radial wind information for this storm


Position and Intensity Table

BASIN ISO_TIME_________ NATURE LAT LON
degrees north degrees east
WP 1923-11-24 22:00:00 NR 10.70 143.00
WP 1923-11-25 00:00:00 NR 10.73 142.72
WP 03:00:00 NR 10.77 142.34
WP 06:00:00 NR 10.82 142.03
WP 09:00:00 NR 10.88 141.83
WP 10:00:00 NR 10.90 141.80
WP 12:00:00 NR 10.95 141.79
WP 15:00:00 NR 11.03 141.83
WP 18:00:00 NR 11.13 141.85
WP 21:00:00 NR 11.25 141.70
WP 22:00:00 NR 11.30 141.60
WP 1923-11-26 00:00:00 NR 11.40 141.21
WP 03:00:00 NR 11.56 140.43
WP 06:00:00 NR 11.75 139.54
WP 09:00:00 NR 11.94 138.66
WP 10:00:00 NR 12.00 138.40
WP 12:00:00 NR 12.13 137.99
WP 15:00:00 NR 12.33 137.46
WP 18:00:00 NR 12.53 136.99
WP 21:00:00 NR 12.74 136.55
WP 22:00:00 NR 12.80 136.40
WP 1923-11-27 00:00:00 NR 12.92 136.10
WP 03:00:00 NR 13.09 135.65
WP 06:00:00 NR 13.26 135.21
WP 09:00:00 NR 13.44 134.76
WP 10:00:00 NR 13.50 134.60
WP 12:00:00 NR 13.64 134.24
WP 15:00:00 NR 13.86 133.68
WP 18:00:00 NR 14.07 133.14
WP 21:00:00 NR 14.25 132.65
WP 22:00:00 NR 14.30 132.50
WP 1923-11-28 00:00:00 NR 14.36 132.26
WP 03:00:00 NR 14.42 131.96
WP 06:00:00 NR 14.47 131.71
WP 09:00:00 NR 14.56 131.48
WP 10:00:00 NR 14.60 131.40
WP 12:00:00 NR 14.71 131.23
WP 15:00:00 NR 14.93 130.97
WP 18:00:00 NR 15.20 130.69
WP 21:00:00 NR 15.50 130.40
WP 22:00:00 NR 15.60 130.30

Source Information

Agency Information
USA
TOKYO
CMA
HKO
NEWDELHI
REUNION
BOM
NADI
WELLINGTON
DS824
TD9636 cons_worldwide_trop_cyclone_18710101-19891231-003:Line=7106
TD9635
NEUMANN
MLC

All available IBTrACS Data

SEASON BASIN SUBBASIN ISO_TIME_________ NATURE LAT LON DIST2LAND LANDFALL IFLAG USA SSHS TD9636 LAT TD9636 LON TD9636 STAGE STORM SPEED STORM DIR
Year degrees north degrees east km km 1 degrees north degrees east kts degrees
1923 WP MM 1923-11-24 22:00:00 NR 10.70 143.00 1477 1465 __________O___ -1 10.70 143.00 2 8 276
1923 WP MM 1923-11-25 00:00:00 NR 10.73 142.72 1465 1458 __________P___ -1 10.73 142.72 2 8 276
1923 WP MM 03:00:00 NR 10.77 142.34 1461 1451 __________P___ -1 10.77 142.34 2 7 278
1923 WP MM 06:00:00 NR 10.82 142.03 1451 1448 __________P___ -1 10.82 142.03 2 5 282
1923 WP MM 09:00:00 NR 10.88 141.83 1456 1456 __________P___ -1 10.88 141.83 2 4 289
1923 WP MM 10:00:00 NR 10.90 141.80 1456 1456 __________O___ -1 10.90 141.80 2 2 329
1923 WP MM 12:00:00 NR 10.95 141.79 1456 1466 __________P___ -1 10.95 141.79 2 2 19
1923 WP MM 15:00:00 NR 11.03 141.83 1466 1466 __________P___ -1 11.03 141.83 2 2 19
1923 WP MM 18:00:00 NR 11.13 141.85 1477 1477 __________P___ -1 11.13 141.85 2 3 331
1923 WP MM 21:00:00 NR 11.25 141.70 1496 1493 __________P___ -1 11.25 141.70 2 4 305
1923 WP MM 22:00:00 NR 11.30 141.60 1493 1486 __________O___ -1 11.30 141.60 2 10 287
1923 WP MM 1923-11-26 00:00:00 NR 11.40 141.21 1487 1469 __________P___ -1 11.40 141.21 2 14 283
1923 WP MM 03:00:00 NR 11.56 140.43 1475 1454 __________P___ -1 11.56 140.43 2 17 282
1923 WP MM 06:00:00 NR 11.75 139.54 1454 1400 __________P___ -1 11.75 139.54 2 18 282
1923 WP MM 09:00:00 NR 11.94 138.66 1400 1370 __________P___ -1 11.94 138.66 2 17 283
1923 WP MM 10:00:00 NR 12.00 138.40 1370 1330 __________O___ -1 12.00 138.40 2 14 286
1923 WP MM 12:00:00 NR 12.13 137.99 1330 1283 __________P___ -1 12.13 137.99 2 12 290
1923 WP MM 15:00:00 NR 12.33 137.46 1283 1231 __________P___ -1 12.33 137.46 2 11 292
1923 WP MM 18:00:00 NR 12.53 136.99 1231 1180 __________P___ -1 12.53 136.99 2 10 294
1923 WP MM 21:00:00 NR 12.74 136.55 1180 1171 __________P___ -1 12.74 136.55 2 9 295
1923 WP MM 22:00:00 NR 12.80 136.40 1171 1141 __________O___ -1 12.80 136.40 2 10 293
1923 WP MM 1923-11-27 00:00:00 NR 12.92 136.10 1141 1102 __________P___ -1 12.92 136.10 2 9 292
1923 WP MM 03:00:00 NR 13.09 135.65 1102 1054 __________P___ -1 13.09 135.65 2 9 292
1923 WP MM 06:00:00 NR 13.26 135.21 1054 1014 __________P___ -1 13.26 135.21 2 9 292
1923 WP MM 09:00:00 NR 13.44 134.76 1014 996 __________P___ -1 13.44 134.76 2 10 292
1923 WP MM 10:00:00 NR 13.50 134.60 996 956 __________O___ -1 13.50 134.60 2 11 292
1923 WP MM 12:00:00 NR 13.64 134.24 956 906 __________P___ -1 13.64 134.24 2 12 292
1923 WP MM 15:00:00 NR 13.86 133.68 908 850 __________P___ -1 13.86 133.68 2 12 292
1923 WP MM 18:00:00 NR 14.07 133.14 850 800 __________P___ -1 14.07 133.14 2 11 291
1923 WP MM 21:00:00 NR 14.25 132.65 800 793 __________P___ -1 14.25 132.65 2 10 291
1923 WP MM 22:00:00 NR 14.30 132.50 793 772 __________O___ -1 14.30 132.50 2 8 286
1923 WP MM 1923-11-28 00:00:00 NR 14.36 132.26 776 745 __________P___ -1 14.36 132.26 2 6 283
1923 WP MM 03:00:00 NR 14.42 131.96 745 718 __________P___ -1 14.42 131.96 2 5 282
1923 WP MM 06:00:00 NR 14.47 131.71 718 698 __________P___ -1 14.47 131.71 2 5 287
1923 WP MM 09:00:00 NR 14.56 131.48 702 692 __________P___ -1 14.56 131.48 2 5 293
1923 WP MM 10:00:00 NR 14.60 131.40 692 677 __________O___ -1 14.60 131.40 2 6 303
1923 WP MM 12:00:00 NR 14.71 131.23 677 667 __________P___ -1 14.71 131.23 2 6 309
1923 WP MM 15:00:00 NR 14.93 130.97 667 653 __________P___ -1 14.93 130.97 2 7 313
1923 WP MM 18:00:00 NR 15.20 130.69 654 639 __________P___ -1 15.20 130.69 2 8 316
1923 WP MM 21:00:00 NR 15.50 130.40 645 636 __________P___ -1 15.50 130.40 2 8 317
1923 WP MM 22:00:00 NR 15.60 130.30 643 __________O___ -1 15.60 130.30 2 8 315